Shagang Hongfa — 9V9138 — position and weather

sailwx.info

Track history (hours):
 
Tides and Currents Weather Stations Pressure Air Temp Water Temp Dewpoint Dewpoint Depression Visibility Wind Speed Wind Dir Waves Ship Positions

Shagang Hongfa

Last reported at 2016-Dec-09 07:32 UTC. Time now 2016-Dec-09 07:49 UTC.
Position N 35°21' E 119°32'.

Length 292 m; draft 18.2 m.

Type: Cargo ship. MMSI: 566178000.

Date/timePositionNaut miles runAvg speedWind from/ knotsBaromVisibWave heightAir tempDewpointWater temp
2016-Dec-09 07:32N 35°21' E 119°32'0 0.0
2016-Dec-09 06:33N 35°21' E 119°32'1 0.7
2016-Dec-09 05:33N 35°22' E 119°33'0 0.0
2016-Dec-09 04:33N 35°22' E 119°33'0 0.0
2016-Dec-09 03:33N 35°22' E 119°33'0 0.0
2016-Dec-09 02:33N 35°22' E 119°33'0 0.0
2016-Dec-09 01:33N 35°22' E 119°33'0 0.0
2016-Dec-09 00:33N 35°22' E 119°33'0 0.0
2016-Dec-08 23:33N 35°22' E 119°33'0 0.0
2016-Dec-08 22:33N 35°22' E 119°33'0 0.0
2016-Dec-08 21:33N 35°22' E 119°33'0 0.0
2016-Dec-08 20:33N 35°22' E 119°33'0 0.0
2016-Dec-08 19:33N 35°22' E 119°33'0 0.1
2016-Dec-08 18:33N 35°22' E 119°33'3 3.4
2016-Dec-08 17:33N 35°19' E 119°36'7 6.6
2016-Dec-08 16:33N 35°17' E 119°43'4 4.4
2016-Dec-08 15:32N 35°15' E 119°49'1 1.0
2016-Dec-08 14:27N 35°16' E 119°50'0 0.0
2016-Dec-08 13:21N 35°16' E 119°50'0 0.1
2016-Dec-08 12:27N 35°16' E 119°50'0 0.3
2016-Dec-08 11:33N 35°16' E 119°50'0 0.1
2016-Dec-08 10:33N 35°16' E 119°50'0 0.0
2016-Dec-08 09:27N 35°16' E 119°50'0 0.0
2016-Dec-08 08:33N 35°16' E 119°50'2 1.7
2016-Dec-08 07:32N 35°15' E 119°52'  
Track history (hours):
 
Tides and Currents Weather Stations Pressure Air Temp Water Temp Dewpoint Dewpoint Depression Visibility Wind Speed Wind Dir Waves Ship Positions

Shagang Hongfa

Last reported at 2016-Dec-09 07:32 UTC. Time now 2016-Dec-09 07:49 UTC.
Position N 35°21' E 119°32'.

Length 292 m; draft 18.2 m.

Type: Cargo ship. MMSI: 566178000.

Date/timePositionNaut miles runAvg speedWind from/ knotsBaromVisibWave heightAir tempDewpointWater temp
2016-Dec-09 07:32N 35°21' E 119°32'0 0.0
2016-Dec-09 06:33N 35°21' E 119°32'1 0.7
2016-Dec-09 05:33N 35°22' E 119°33'0 0.0
2016-Dec-09 04:33N 35°22' E 119°33'0 0.0
2016-Dec-09 03:33N 35°22' E 119°33'0 0.0
2016-Dec-09 02:33N 35°22' E 119°33'0 0.0
2016-Dec-09 01:33N 35°22' E 119°33'0 0.0
2016-Dec-09 00:33N 35°22' E 119°33'0 0.0
2016-Dec-08 23:33N 35°22' E 119°33'0 0.0
2016-Dec-08 22:33N 35°22' E 119°33'0 0.0
2016-Dec-08 21:33N 35°22' E 119°33'0 0.0
2016-Dec-08 20:33N 35°22' E 119°33'0 0.0
2016-Dec-08 19:33N 35°22' E 119°33'0 0.1
2016-Dec-08 18:33N 35°22' E 119°33'3 3.4
2016-Dec-08 17:33N 35°19' E 119°36'7 6.6
2016-Dec-08 16:33N 35°17' E 119°43'4 4.4
2016-Dec-08 15:32N 35°15' E 119°49'1 1.0
2016-Dec-08 14:27N 35°16' E 119°50'0 0.0
2016-Dec-08 13:21N 35°16' E 119°50'0 0.1
2016-Dec-08 12:27N 35°16' E 119°50'0 0.3
2016-Dec-08 11:33N 35°16' E 119°50'0 0.1
2016-Dec-08 10:33N 35°16' E 119°50'0 0.0
2016-Dec-08 09:27N 35°16' E 119°50'0 0.0
2016-Dec-08 08:33N 35°16' E 119°50'2 1.7
2016-Dec-08 07:32N 35°15' E 119°52'  

Dump ship's entire track history